sensor_id;sensor_type;location;lat;lon;timestamp;P1;durP1;ratioP1;P2;durP2;ratioP2
75156;SDS011;63736;50.076;8.198;2023-02-01T00:01:08;21.77;;;12.20;;
75156;SDS011;63736;50.076;8.198;2023-02-01T00:03:34;22.02;;;12.38;;
75156;SDS011;63736;50.076;8.198;2023-02-01T00:05:59;21.83;;;12.83;;
75156;SDS011;63736;50.076;8.198;2023-02-01T00:08:25;24.83;;;16.13;;
75156;SDS011;63736;50.076;8.198;2023-02-01T00:11:24;25.27;;;18.98;;
75156;SDS011;63736;50.076;8.198;2023-02-01T00:13:42;26.95;;;19.65;;
75156;SDS011;63736;50.076;8.198;2023-02-01T00:18:41;29.85;;;17.92;;
75156;SDS011;63736;50.076;8.198;2023-02-01T00:21:07;24.30;;;13.48;;
75156;SDS011;63736;50.076;8.198;2023-02-01T00:23:35;21.52;;;13.52;;
75156;SDS011;63736;50.076;8.198;2023-02-01T00:26:01;25.40;;;14.50;;
75156;SDS011;63736;50.076;8.198;2023-02-01T00:28:27;21.75;;;11.75;;
75156;SDS011;63736;50.076;8.198;2023-02-01T00:31:00;21.30;;;11.57;;
75156;SDS011;63736;50.076;8.198;2023-02-01T00:33:28;29.15;;;14.65;;
75156;SDS011;63736;50.076;8.198;2023-02-01T00:35:58;25.65;;;12.45;;
75156;SDS011;63736;50.076;8.198;2023-02-01T00:38:25;27.70;;;13.15;;
75156;SDS011;63736;50.076;8.198;2023-02-01T00:40:51;15.77;;;8.67;;
75156;SDS011;63736;50.076;8.198;2023-02-01T00:43:16;14.40;;;7.97;;
75156;SDS011;63736;50.076;8.198;2023-02-01T00:45:42;16.77;;;9.60;;
75156;SDS011;63736;50.076;8.198;2023-02-01T00:48:07;16.47;;;9.40;;
75156;SDS011;63736;50.076;8.198;2023-02-01T00:50:32;15.63;;;9.20;;
75156;SDS011;63736;50.076;8.198;2023-02-01T00:52:57;15.30;;;9.17;;
75156;SDS011;63736;50.076;8.198;2023-02-01T00:55:23;18.27;;;9.37;;
75156;SDS011;63736;50.076;8.198;2023-02-01T00:57:48;17.20;;;10.37;;
75156;SDS011;63736;50.076;8.198;2023-02-01T01:00:13;16.67;;;10.13;;
75156;SDS011;63736;50.076;8.198;2023-02-01T01:02:41;20.20;;;11.20;;
75156;SDS011;63736;50.076;8.198;2023-02-01T01:05:06;13.52;;;8.30;;
75156;SDS011;63736;50.076;8.198;2023-02-01T01:07:32;14.77;;;8.33;;
75156;SDS011;63736;50.076;8.198;2023-02-01T01:09:57;15.23;;;7.77;;
75156;SDS011;63736;50.076;8.198;2023-02-01T01:12:22;15.00;;;7.77;;
75156;SDS011;63736;50.076;8.198;2023-02-01T01:14:47;13.07;;;7.57;;
75156;SDS011;63736;50.076;8.198;2023-02-01T01:17:13;12.50;;;6.70;;
75156;SDS011;63736;50.076;8.198;2023-02-01T01:19:38;12.83;;;7.03;;
75156;SDS011;63736;50.076;8.198;2023-02-01T01:22:03;12.63;;;6.20;;
75156;SDS011;63736;50.076;8.198;2023-02-01T01:30:20;14.25;;;9.98;;
75156;SDS011;63736;50.076;8.198;2023-02-01T01:32:45;13.23;;;8.20;;
75156;SDS011;63736;50.076;8.198;2023-02-01T01:35:11;14.80;;;9.97;;
75156;SDS011;63736;50.076;8.198;2023-02-01T01:37:36;15.43;;;10.15;;
75156;SDS011;63736;50.076;8.198;2023-02-01T01:40:03;14.53;;;9.93;;
75156;SDS011;63736;50.076;8.198;2023-02-01T01:42:29;16.08;;;11.57;;
75156;SDS011;63736;50.076;8.198;2023-02-01T01:45:03;18.30;;;12.40;;
75156;SDS011;63736;50.076;8.198;2023-02-01T01:47:37;17.15;;;12.75;;
75156;SDS011;63736;50.076;8.198;2023-02-01T01:50:09;15.70;;;12.15;;
75156;SDS011;63736;50.076;8.198;2023-02-01T01:52:36;18.10;;;12.60;;
75156;SDS011;63736;50.076;8.198;2023-02-01T01:55:03;16.98;;;12.15;;
75156;SDS011;63736;50.076;8.198;2023-02-01T01:57:31;17.25;;;12.95;;
75156;SDS011;63736;50.076;8.198;2023-02-01T02:00:03;16.38;;;11.40;;
75156;SDS011;63736;50.076;8.198;2023-02-01T02:02:30;16.95;;;11.05;;
75156;SDS011;63736;50.076;8.198;2023-02-01T02:04:55;15.80;;;10.20;;
75156;SDS011;63736;50.076;8.198;2023-02-01T02:07:22;17.10;;;11.90;;
75156;SDS011;63736;50.076;8.198;2023-02-01T02:09:50;16.05;;;9.95;;
75156;SDS011;63736;50.076;8.198;2023-02-01T02:12:16;13.67;;;8.20;;
75156;SDS011;63736;50.076;8.198;2023-02-01T02:14:41;15.07;;;9.10;;
75156;SDS011;63736;50.076;8.198;2023-02-01T02:25:44;16.27;;;11.15;;
75156;SDS011;63736;50.076;8.198;2023-02-01T02:34:21;16.03;;;10.30;;
75156;SDS011;63736;50.076;8.198;2023-02-01T02:39:55;14.38;;;9.35;;
75156;SDS011;63736;50.076;8.198;2023-02-01T02:45:41;15.63;;;8.13;;
75156;SDS011;63736;50.076;8.198;2023-02-01T02:48:38;13.77;;;9.23;;
75156;SDS011;63736;50.076;8.198;2023-02-01T02:51:11;13.95;;;8.25;;
75156;SDS011;63736;50.076;8.198;2023-02-01T02:54:06;12.93;;;7.70;;
75156;SDS011;63736;50.076;8.198;2023-02-01T02:56:56;13.80;;;8.32;;
75156;SDS011;63736;50.076;8.198;2023-02-01T02:59:42;14.10;;;7.72;;
75156;SDS011;63736;50.076;8.198;2023-02-01T03:02:29;15.47;;;8.70;;
75156;SDS011;63736;50.076;8.198;2023-02-01T03:05:14;12.50;;;7.72;;
75156;SDS011;63736;50.076;8.198;2023-02-01T03:10:16;12.60;;;6.47;;
75156;SDS011;63736;50.076;8.198;2023-02-01T03:12:48;11.50;;;6.20;;
75156;SDS011;63736;50.076;8.198;2023-02-01T03:15:23;12.70;;;6.03;;
75156;SDS011;63736;50.076;8.198;2023-02-01T03:17:55;14.25;;;7.57;;
75156;SDS011;63736;50.076;8.198;2023-02-01T03:20:22;13.45;;;6.50;;
75156;SDS011;63736;50.076;8.198;2023-02-01T03:22:50;16.10;;;7.28;;
75156;SDS011;63736;50.076;8.198;2023-02-01T03:25:19;13.68;;;6.43;;
75156;SDS011;63736;50.076;8.198;2023-02-01T03:27:48;14.60;;;7.37;;
75156;SDS011;63736;50.076;8.198;2023-02-01T03:30:26;13.40;;;6.47;;
75156;SDS011;63736;50.076;8.198;2023-02-01T03:32:55;13.88;;;6.53;;
75156;SDS011;63736;50.076;8.198;2023-02-01T03:38:44;13.43;;;6.07;;
75156;SDS011;63736;50.076;8.198;2023-02-01T03:44:00;12.63;;;6.15;;
75156;SDS011;63736;50.076;8.198;2023-02-01T03:46:35;14.30;;;7.60;;
75156;SDS011;63736;50.076;8.198;2023-02-01T03:49:06;13.20;;;6.28;;
75156;SDS011;63736;50.076;8.198;2023-02-01T03:51:38;14.52;;;6.90;;
75156;SDS011;63736;50.076;8.198;2023-02-01T03:54:05;15.17;;;6.73;;
75156;SDS011;63736;50.076;8.198;2023-02-01T03:56:36;19.25;;;8.35;;
75156;SDS011;63736;50.076;8.198;2023-02-01T03:59:03;22.48;;;10.38;;
75156;SDS011;63736;50.076;8.198;2023-02-01T04:01:29;24.20;;;10.30;;
75156;SDS011;63736;50.076;8.198;2023-02-01T04:03:55;26.30;;;10.35;;
75156;SDS011;63736;50.076;8.198;2023-02-01T04:06:22;47.10;;;20.77;;
75156;SDS011;63736;50.076;8.198;2023-02-01T04:08:47;43.83;;;18.20;;
75156;SDS011;63736;50.076;8.198;2023-02-01T04:11:13;43.53;;;19.23;;
75156;SDS011;63736;50.076;8.198;2023-02-01T04:13:38;35.63;;;18.17;;
75156;SDS011;63736;50.076;8.198;2023-02-01T04:16:04;48.50;;;22.92;;
75156;SDS011;63736;50.076;8.198;2023-02-01T04:18:29;36.30;;;16.77;;
75156;SDS011;63736;50.076;8.198;2023-02-01T04:20:55;38.17;;;18.23;;
75156;SDS011;63736;50.076;8.198;2023-02-01T04:23:20;33.55;;;17.85;;
75156;SDS011;63736;50.076;8.198;2023-02-01T04:25:46;43.57;;;20.20;;
75156;SDS011;63736;50.076;8.198;2023-02-01T04:28:11;30.17;;;15.97;;
75156;SDS011;63736;50.076;8.198;2023-02-01T04:30:36;30.73;;;13.60;;
75156;SDS011;63736;50.076;8.198;2023-02-01T04:33:02;26.87;;;11.53;;
75156;SDS011;63736;50.076;8.198;2023-02-01T04:35:30;18.97;;;9.63;;
75156;SDS011;63736;50.076;8.198;2023-02-01T04:37:55;20.90;;;10.18;;
75156;SDS011;63736;50.076;8.198;2023-02-01T04:40:20;26.30;;;11.93;;
75156;SDS011;63736;50.076;8.198;2023-02-01T04:42:46;22.57;;;10.47;;
75156;SDS011;63736;50.076;8.198;2023-02-01T04:45:11;19.07;;;9.57;;
75156;SDS011;63736;50.076;8.198;2023-02-01T04:47:36;20.57;;;10.40;;
75156;SDS011;63736;50.076;8.198;2023-02-01T04:50:02;23.67;;;10.40;;
75156;SDS011;63736;50.076;8.198;2023-02-01T04:52:27;16.77;;;7.90;;
75156;SDS011;63736;50.076;8.198;2023-02-01T04:54:53;16.90;;;8.10;;
75156;SDS011;63736;50.076;8.198;2023-02-01T04:57:19;19.27;;;8.38;;
75156;SDS011;63736;50.076;8.198;2023-02-01T04:59:44;16.73;;;7.50;;
75156;SDS011;63736;50.076;8.198;2023-02-01T05:02:10;12.83;;;5.87;;
75156;SDS011;63736;50.076;8.198;2023-02-01T05:04:35;11.57;;;5.33;;
75156;SDS011;63736;50.076;8.198;2023-02-01T05:07:00;13.93;;;6.53;;
75156;SDS011;63736;50.076;8.198;2023-02-01T05:09:25;12.80;;;5.80;;
75156;SDS011;63736;50.076;8.198;2023-02-01T05:11:51;11.87;;;5.37;;
75156;SDS011;63736;50.076;8.198;2023-02-01T05:14:34;14.68;;;6.13;;
75156;SDS011;63736;50.076;8.198;2023-02-01T05:17:00;11.90;;;5.00;;
75156;SDS011;63736;50.076;8.198;2023-02-01T05:19:25;12.07;;;5.13;;
75156;SDS011;63736;50.076;8.198;2023-02-01T05:21:50;11.17;;;4.03;;
75156;SDS011;63736;50.076;8.198;2023-02-01T05:24:15;12.50;;;4.33;;
75156;SDS011;63736;50.076;8.198;2023-02-01T05:26:47;8.87;;;3.40;;
75156;SDS011;63736;50.076;8.198;2023-02-01T05:29:13;10.93;;;4.25;;
75156;SDS011;63736;50.076;8.198;2023-02-01T05:31:39;11.50;;;4.38;;
75156;SDS011;63736;50.076;8.198;2023-02-01T05:34:05;10.55;;;3.38;;
75156;SDS011;63736;50.076;8.198;2023-02-01T05:36:31;9.70;;;3.67;;
75156;SDS011;63736;50.076;8.198;2023-02-01T05:38:56;11.03;;;3.87;;
75156;SDS011;63736;50.076;8.198;2023-02-01T05:41:22;8.80;;;3.50;;
75156;SDS011;63736;50.076;8.198;2023-02-01T05:43:47;12.90;;;5.23;;
75156;SDS011;63736;50.076;8.198;2023-02-01T05:46:13;17.23;;;7.23;;
75156;SDS011;63736;50.076;8.198;2023-02-01T05:48:39;13.57;;;5.70;;
75156;SDS011;63736;50.076;8.198;2023-02-01T05:51:05;10.97;;;4.83;;
75156;SDS011;63736;50.076;8.198;2023-02-01T05:53:30;10.55;;;4.30;;
75156;SDS011;63736;50.076;8.198;2023-02-01T05:55:56;10.13;;;4.33;;
75156;SDS011;63736;50.076;8.198;2023-02-01T05:58:21;9.27;;;3.93;;
75156;SDS011;63736;50.076;8.198;2023-02-01T06:00:46;9.70;;;4.23;;
75156;SDS011;63736;50.076;8.198;2023-02-01T06:03:11;9.33;;;3.43;;
75156;SDS011;63736;50.076;8.198;2023-02-01T06:05:37;12.60;;;4.27;;
75156;SDS011;63736;50.076;8.198;2023-02-01T06:08:02;10.93;;;4.07;;
75156;SDS011;63736;50.076;8.198;2023-02-01T06:10:27;10.97;;;4.20;;
75156;SDS011;63736;50.076;8.198;2023-02-01T06:12:53;13.40;;;5.27;;
75156;SDS011;63736;50.076;8.198;2023-02-01T06:15:18;11.33;;;4.97;;
75156;SDS011;63736;50.076;8.198;2023-02-01T06:17:44;15.07;;;7.63;;
75156;SDS011;63736;50.076;8.198;2023-02-01T06:20:10;44.53;;;33.17;;
75156;SDS011;63736;50.076;8.198;2023-02-01T06:22:37;72.15;;;43.45;;
75156;SDS011;63736;50.076;8.198;2023-02-01T06:25:04;78.05;;;43.50;;
75156;SDS011;63736;50.076;8.198;2023-02-01T06:27:30;128.43;;;54.97;;
75156;SDS011;63736;50.076;8.198;2023-02-01T06:29:56;108.50;;;51.65;;
75156;SDS011;63736;50.076;8.198;2023-02-01T06:32:21;108.70;;;53.97;;
75156;SDS011;63736;50.076;8.198;2023-02-01T06:34:47;68.88;;;39.80;;
75156;SDS011;63736;50.076;8.198;2023-02-01T06:37:13;47.33;;;21.70;;
75156;SDS011;63736;50.076;8.198;2023-02-01T06:39:38;39.22;;;15.00;;
75156;SDS011;63736;50.076;8.198;2023-02-01T06:42:04;49.90;;;18.20;;
75156;SDS011;63736;50.076;8.198;2023-02-01T06:44:29;34.13;;;12.93;;
75156;SDS011;63736;50.076;8.198;2023-02-01T06:46:54;25.93;;;9.83;;
75156;SDS011;63736;50.076;8.198;2023-02-01T06:49:20;23.00;;;9.10;;
75156;SDS011;63736;50.076;8.198;2023-02-01T06:51:46;20.50;;;7.35;;
75156;SDS011;63736;50.076;8.198;2023-02-01T06:54:11;21.33;;;6.80;;
75156;SDS011;63736;50.076;8.198;2023-02-01T06:56:37;19.53;;;7.93;;
75156;SDS011;63736;50.076;8.198;2023-02-01T06:59:06;16.77;;;7.33;;
75156;SDS011;63736;50.076;8.198;2023-02-01T07:01:32;15.48;;;7.20;;
75156;SDS011;63736;50.076;8.198;2023-02-01T07:03:57;19.10;;;7.20;;
75156;SDS011;63736;50.076;8.198;2023-02-01T07:06:23;11.37;;;5.00;;
75156;SDS011;63736;50.076;8.198;2023-02-01T07:08:48;20.57;;;6.63;;
75156;SDS011;63736;50.076;8.198;2023-02-01T07:11:14;14.60;;;5.63;;
75156;SDS011;63736;50.076;8.198;2023-02-01T07:13:41;18.13;;;6.07;;
75156;SDS011;63736;50.076;8.198;2023-02-01T07:16:08;13.48;;;5.68;;
75156;SDS011;63736;50.076;8.198;2023-02-01T07:18:35;16.53;;;5.70;;
75156;SDS011;63736;50.076;8.198;2023-02-01T07:21:01;14.07;;;5.53;;
75156;SDS011;63736;50.076;8.198;2023-02-01T07:23:26;14.07;;;4.97;;
75156;SDS011;63736;50.076;8.198;2023-02-01T07:25:53;13.10;;;5.03;;
75156;SDS011;63736;50.076;8.198;2023-02-01T07:28:22;18.38;;;5.07;;
75156;SDS011;63736;50.076;8.198;2023-02-01T07:30:48;18.17;;;5.80;;
75156;SDS011;63736;50.076;8.198;2023-02-01T07:33:17;14.90;;;5.00;;
75156;SDS011;63736;50.076;8.198;2023-02-01T07:35:43;14.03;;;4.50;;
75156;SDS011;63736;50.076;8.198;2023-02-01T07:38:09;12.03;;;4.43;;
75156;SDS011;63736;50.076;8.198;2023-02-01T07:40:34;11.63;;;4.40;;
75156;SDS011;63736;50.076;8.198;2023-02-01T07:42:59;10.93;;;4.90;;
75156;SDS011;63736;50.076;8.198;2023-02-01T07:45:24;11.97;;;4.83;;
75156;SDS011;63736;50.076;8.198;2023-02-01T07:47:51;16.57;;;11.13;;
75156;SDS011;63736;50.076;8.198;2023-02-01T07:50:17;23.80;;;16.35;;
75156;SDS011;63736;50.076;8.198;2023-02-01T07:52:42;65.03;;;38.47;;
75156;SDS011;63736;50.076;8.198;2023-02-01T07:55:07;47.77;;;33.07;;
75156;SDS011;63736;50.076;8.198;2023-02-01T07:57:33;32.95;;;24.52;;
75156;SDS011;63736;50.076;8.198;2023-02-01T07:59:58;11.47;;;5.93;;
75156;SDS011;63736;50.076;8.198;2023-02-01T08:02:42;15.82;;;4.35;;
75156;SDS011;63736;50.076;8.198;2023-02-01T08:05:07;11.80;;;4.00;;
75156;SDS011;63736;50.076;8.198;2023-02-01T08:07:34;35.67;;;25.77;;
75156;SDS011;63736;50.076;8.198;2023-02-01T08:09:59;502.07;;;153.93;;
75156;SDS011;63736;50.076;8.198;2023-02-01T08:12:25;477.50;;;143.30;;
75156;SDS011;63736;50.076;8.198;2023-02-01T08:14:50;476.90;;;144.40;;
75156;SDS011;63736;50.076;8.198;2023-02-01T08:17:15;482.50;;;144.23;;
75156;SDS011;63736;50.076;8.198;2023-02-01T08:19:41;485.27;;;145.80;;
75156;SDS011;63736;50.076;8.198;2023-02-01T08:22:06;443.87;;;134.87;;
75156;SDS011;63736;50.076;8.198;2023-02-01T08:24:32;435.37;;;131.80;;
75156;SDS011;63736;50.076;8.198;2023-02-01T08:27:00;416.73;;;128.30;;
75156;SDS011;63736;50.076;8.198;2023-02-01T08:29:25;426.73;;;128.35;;
75156;SDS011;63736;50.076;8.198;2023-02-01T08:31:51;396.30;;;121.27;;
75156;SDS011;63736;50.076;8.198;2023-02-01T08:34:16;437.37;;;132.80;;
75156;SDS011;63736;50.076;8.198;2023-02-01T08:36:42;407.47;;;123.57;;
75156;SDS011;63736;50.076;8.198;2023-02-01T08:39:08;395.47;;;121.00;;
75156;SDS011;63736;50.076;8.198;2023-02-01T08:41:36;385.30;;;117.83;;
75156;SDS011;63736;50.076;8.198;2023-02-01T08:44:01;379.90;;;116.70;;
75156;SDS011;63736;50.076;8.198;2023-02-01T08:46:27;375.43;;;116.00;;
75156;SDS011;63736;50.076;8.198;2023-02-01T08:48:52;355.45;;;110.50;;
75156;SDS011;63736;50.076;8.198;2023-02-01T08:51:19;337.20;;;106.13;;
75156;SDS011;63736;50.076;8.198;2023-02-01T08:53:46;330.58;;;105.25;;
75156;SDS011;63736;50.076;8.198;2023-02-01T08:56:12;323.73;;;102.37;;
75156;SDS011;63736;50.076;8.198;2023-02-01T08:58:39;323.60;;;102.60;;
75156;SDS011;63736;50.076;8.198;2023-02-01T09:01:05;319.00;;;101.83;;
75156;SDS011;63736;50.076;8.198;2023-02-01T09:03:32;320.35;;;102.50;;
75156;SDS011;63736;50.076;8.198;2023-02-01T09:05:59;326.70;;;103.47;;
75156;SDS011;63736;50.076;8.198;2023-02-01T09:08:35;350.67;;;108.65;;
75156;SDS011;63736;50.076;8.198;2023-02-01T09:11:03;361.13;;;110.63;;
75156;SDS011;63736;50.076;8.198;2023-02-01T09:13:31;363.23;;;111.80;;
75156;SDS011;63736;50.076;8.198;2023-02-01T09:15:56;393.47;;;118.60;;
75156;SDS011;63736;50.076;8.198;2023-02-01T09:18:22;394.85;;;119.38;;
75156;SDS011;63736;50.076;8.198;2023-02-01T09:20:48;398.13;;;120.60;;
75156;SDS011;63736;50.076;8.198;2023-02-01T09:23:13;388.57;;;118.47;;
75156;SDS011;63736;50.076;8.198;2023-02-01T09:25:39;381.97;;;117.03;;
75156;SDS011;63736;50.076;8.198;2023-02-01T09:28:05;375.93;;;115.73;;
75156;SDS011;63736;50.076;8.198;2023-02-01T09:30:33;376.13;;;116.72;;
75156;SDS011;63736;50.076;8.198;2023-02-01T09:32:59;377.83;;;116.90;;
75156;SDS011;63736;50.076;8.198;2023-02-01T09:35:24;375.20;;;115.70;;
75156;SDS011;63736;50.076;8.198;2023-02-01T09:37:49;375.23;;;116.17;;
75156;SDS011;63736;50.076;8.198;2023-02-01T09:40:17;374.95;;;115.60;;
75156;SDS011;63736;50.076;8.198;2023-02-01T09:48:12;373.50;;;115.40;;
75156;SDS011;63736;50.076;8.198;2023-02-01T09:50:43;355.73;;;111.57;;
75156;SDS011;63736;50.076;8.198;2023-02-01T09:53:28;347.73;;;109.82;;
75156;SDS011;63736;50.076;8.198;2023-02-01T09:55:59;345.08;;;109.68;;
75156;SDS011;63736;50.076;8.198;2023-02-01T10:00:57;312.07;;;99.90;;
75156;SDS011;63736;50.076;8.198;2023-02-01T10:03:24;83.60;;;42.27;;
75156;SDS011;63736;50.076;8.198;2023-02-01T10:06:03;38.20;;;28.70;;
75156;SDS011;63736;50.076;8.198;2023-02-01T10:16:54;30.67;;;18.67;;
75156;SDS011;63736;50.076;8.198;2023-02-01T10:19:34;21.42;;;15.55;;
75156;SDS011;63736;50.076;8.198;2023-02-01T10:22:05;18.67;;;12.45;;
75156;SDS011;63736;50.076;8.198;2023-02-01T10:24:46;18.83;;;10.48;;
75156;SDS011;63736;50.076;8.198;2023-02-01T10:27:34;17.70;;;9.73;;
75156;SDS011;63736;50.076;8.198;2023-02-01T10:30:45;16.27;;;9.63;;
75156;SDS011;63736;50.076;8.198;2023-02-01T10:32:55;17.75;;;10.27;;
75156;SDS011;63736;50.076;8.198;2023-02-01T10:35:23;17.38;;;8.45;;
75156;SDS011;63736;50.076;8.198;2023-02-01T10:37:58;24.63;;;9.32;;
75156;SDS011;63736;50.076;8.198;2023-02-01T10:40:26;27.60;;;9.80;;
75156;SDS011;63736;50.076;8.198;2023-02-01T10:42:53;37.43;;;11.77;;
75156;SDS011;63736;50.076;8.198;2023-02-01T10:45:21;31.33;;;10.80;;
75156;SDS011;63736;50.076;8.198;2023-02-01T10:47:50;21.98;;;8.75;;
75156;SDS011;63736;50.076;8.198;2023-02-01T10:50:34;16.75;;;7.30;;
75156;SDS011;63736;50.076;8.198;2023-02-01T10:53:08;21.02;;;9.57;;
75156;SDS011;63736;50.076;8.198;2023-02-01T10:55:41;19.95;;;7.72;;
75156;SDS011;63736;50.076;8.198;2023-02-01T10:58:15;19.60;;;7.13;;
75156;SDS011;63736;50.076;8.198;2023-02-01T11:00:46;14.68;;;6.00;;
75156;SDS011;63736;50.076;8.198;2023-02-01T11:03:31;13.50;;;5.70;;
75156;SDS011;63736;50.076;8.198;2023-02-01T11:06:08;20.42;;;7.20;;
75156;SDS011;63736;50.076;8.198;2023-02-01T11:08:43;21.85;;;7.18;;
75156;SDS011;63736;50.076;8.198;2023-02-01T11:11:10;24.93;;;11.43;;
75156;SDS011;63736;50.076;8.198;2023-02-01T11:13:37;15.95;;;7.38;;
75156;SDS011;63736;50.076;8.198;2023-02-01T11:16:04;15.82;;;6.00;;
75156;SDS011;63736;50.076;8.198;2023-02-01T11:18:31;15.95;;;4.75;;
75156;SDS011;63736;50.076;8.198;2023-02-01T11:21:00;13.93;;;4.88;;
75156;SDS011;63736;50.076;8.198;2023-02-01T11:23:27;17.70;;;4.63;;
75156;SDS011;63736;50.076;8.198;2023-02-01T11:25:56;11.85;;;4.22;;
75156;SDS011;63736;50.076;8.198;2023-02-01T11:28:25;13.98;;;4.32;;
75156;SDS011;63736;50.076;8.198;2023-02-01T11:30:54;12.40;;;4.15;;
75156;SDS011;63736;50.076;8.198;2023-02-01T11:33:29;14.30;;;4.20;;
75156;SDS011;63736;50.076;8.198;2023-02-01T11:36:00;11.73;;;3.90;;
75156;SDS011;63736;50.076;8.198;2023-02-01T11:38:32;12.07;;;4.18;;
75156;SDS011;63736;50.076;8.198;2023-02-01T11:41:19;12.52;;;4.18;;
75156;SDS011;63736;50.076;8.198;2023-02-01T11:43:54;11.25;;;3.80;;
75156;SDS011;63736;50.076;8.198;2023-02-01T11:46:28;10.90;;;3.58;;
75156;SDS011;63736;50.076;8.198;2023-02-01T11:49:13;10.83;;;3.50;;
75156;SDS011;63736;50.076;8.198;2023-02-01T11:54:59;12.13;;;3.78;;
75156;SDS011;63736;50.076;8.198;2023-02-01T12:03:06;12.23;;;3.20;;
75156;SDS011;63736;50.076;8.198;2023-02-01T12:11:27;12.07;;;3.20;;
75156;SDS011;63736;50.076;8.198;2023-02-01T12:14:14;11.60;;;3.25;;
75156;SDS011;63736;50.076;8.198;2023-02-01T12:17:33;12.17;;;3.40;;
75156;SDS011;63736;50.076;8.198;2023-02-01T12:22:50;11.18;;;3.22;;
75156;SDS011;63736;50.076;8.198;2023-02-01T12:27:59;11.90;;;3.07;;
75156;SDS011;63736;50.076;8.198;2023-02-01T12:31:21;13.75;;;3.50;;
75156;SDS011;63736;50.076;8.198;2023-02-01T12:36:36;13.77;;;4.53;;
75156;SDS011;63736;50.076;8.198;2023-02-01T12:39:31;12.32;;;4.10;;
75156;SDS011;63736;50.076;8.198;2023-02-01T12:44:50;13.98;;;4.20;;
75156;SDS011;63736;50.076;8.198;2023-02-01T12:47:26;13.13;;;4.15;;
75156;SDS011;63736;50.076;8.198;2023-02-01T12:50:00;16.27;;;3.37;;
75156;SDS011;63736;50.076;8.198;2023-02-01T12:52:32;15.27;;;3.25;;
75156;SDS011;63736;50.076;8.198;2023-02-01T12:57:49;16.08;;;3.25;;
75156;SDS011;63736;50.076;8.198;2023-02-01T13:03:41;11.23;;;2.87;;
75156;SDS011;63736;50.076;8.198;2023-02-01T13:11:34;16.05;;;3.97;;
75156;SDS011;63736;50.076;8.198;2023-02-01T13:16:59;20.03;;;5.70;;
75156;SDS011;63736;50.076;8.198;2023-02-01T13:19:36;15.85;;;5.50;;
75156;SDS011;63736;50.076;8.198;2023-02-01T13:22:12;17.85;;;5.68;;
75156;SDS011;63736;50.076;8.198;2023-02-01T13:27:17;21.65;;;6.25;;
75156;SDS011;63736;50.076;8.198;2023-02-01T13:29:46;19.67;;;4.70;;
75156;SDS011;63736;50.076;8.198;2023-02-01T13:32:41;18.67;;;4.32;;
75156;SDS011;63736;50.076;8.198;2023-02-01T13:35:18;18.08;;;4.93;;
75156;SDS011;63736;50.076;8.198;2023-02-01T13:40:56;20.07;;;5.70;;
75156;SDS011;63736;50.076;8.198;2023-02-01T13:44:03;18.42;;;4.43;;
75156;SDS011;63736;50.076;8.198;2023-02-01T13:46:44;16.77;;;4.47;;
75156;SDS011;63736;50.076;8.198;2023-02-01T13:49:45;14.65;;;4.35;;
75156;SDS011;63736;50.076;8.198;2023-02-01T13:52:04;18.85;;;5.50;;
75156;SDS011;63736;50.076;8.198;2023-02-01T13:54:34;18.93;;;4.43;;
75156;SDS011;63736;50.076;8.198;2023-02-01T13:57:06;18.15;;;4.82;;
75156;SDS011;63736;50.076;8.198;2023-02-01T13:59:52;20.33;;;5.72;;
75156;SDS011;63736;50.076;8.198;2023-02-01T14:05:04;18.95;;;4.43;;
75156;SDS011;63736;50.076;8.198;2023-02-01T14:07:32;14.00;;;4.70;;
75156;SDS011;63736;50.076;8.198;2023-02-01T14:09:58;18.63;;;4.13;;
75156;SDS011;63736;50.076;8.198;2023-02-01T14:17:47;18.38;;;4.05;;
75156;SDS011;63736;50.076;8.198;2023-02-01T14:23:12;14.32;;;3.67;;
75156;SDS011;63736;50.076;8.198;2023-02-01T14:25:40;18.35;;;4.75;;
75156;SDS011;63736;50.076;8.198;2023-02-01T14:28:10;13.13;;;3.87;;
75156;SDS011;63736;50.076;8.198;2023-02-01T14:30:56;15.60;;;4.22;;
75156;SDS011;63736;50.076;8.198;2023-02-01T14:33:24;13.52;;;4.10;;
75156;SDS011;63736;50.076;8.198;2023-02-01T14:36:05;14.73;;;3.92;;
75156;SDS011;63736;50.076;8.198;2023-02-01T14:38:34;15.98;;;3.30;;
75156;SDS011;63736;50.076;8.198;2023-02-01T14:41:13;16.60;;;3.80;;
75156;SDS011;63736;50.076;8.198;2023-02-01T14:49:31;13.02;;;3.75;;
75156;SDS011;63736;50.076;8.198;2023-02-01T14:51:58;16.30;;;3.53;;
75156;SDS011;63736;50.076;8.198;2023-02-01T14:54:27;14.57;;;3.33;;
75156;SDS011;63736;50.076;8.198;2023-02-01T14:56:53;15.18;;;3.65;;
75156;SDS011;63736;50.076;8.198;2023-02-01T14:59:20;14.35;;;3.33;;
75156;SDS011;63736;50.076;8.198;2023-02-01T15:01:50;15.20;;;3.85;;
75156;SDS011;63736;50.076;8.198;2023-02-01T15:04:19;16.20;;;4.07;;
75156;SDS011;63736;50.076;8.198;2023-02-01T15:09:36;16.33;;;4.53;;
75156;SDS011;63736;50.076;8.198;2023-02-01T15:12:08;11.70;;;3.33;;
75156;SDS011;63736;50.076;8.198;2023-02-01T15:14:44;10.20;;;2.55;;
75156;SDS011;63736;50.076;8.198;2023-02-01T15:17:25;11.43;;;3.27;;
75156;SDS011;63736;50.076;8.198;2023-02-01T15:19:56;13.43;;;3.05;;
75156;SDS011;63736;50.076;8.198;2023-02-01T15:22:23;14.57;;;3.17;;
75156;SDS011;63736;50.076;8.198;2023-02-01T15:24:53;10.02;;;2.88;;
75156;SDS011;63736;50.076;8.198;2023-02-01T15:27:19;10.57;;;2.40;;
75156;SDS011;63736;50.076;8.198;2023-02-01T15:29:44;11.37;;;2.50;;
75156;SDS011;63736;50.076;8.198;2023-02-01T15:32:29;12.97;;;3.23;;
75156;SDS011;63736;50.076;8.198;2023-02-01T15:34:56;12.18;;;3.75;;
75156;SDS011;63736;50.076;8.198;2023-02-01T15:37:21;10.67;;;3.00;;
75156;SDS011;63736;50.076;8.198;2023-02-01T15:40:03;11.00;;;3.00;;
75156;SDS011;63736;50.076;8.198;2023-02-01T15:42:56;10.63;;;3.55;;
75156;SDS011;63736;50.076;8.198;2023-02-01T15:45:27;10.52;;;2.88;;
75156;SDS011;63736;50.076;8.198;2023-02-01T15:47:55;13.98;;;4.05;;
75156;SDS011;63736;50.076;8.198;2023-02-01T15:50:22;12.20;;;4.57;;
75156;SDS011;63736;50.076;8.198;2023-02-01T15:52:48;15.13;;;3.97;;
75156;SDS011;63736;50.076;8.198;2023-02-01T15:55:19;19.83;;;3.20;;
75156;SDS011;63736;50.076;8.198;2023-02-01T15:57:49;9.07;;;2.72;;
75156;SDS011;63736;50.076;8.198;2023-02-01T16:00:21;11.07;;;2.53;;
75156;SDS011;63736;50.076;8.198;2023-02-01T16:02:54;14.43;;;2.85;;
75156;SDS011;63736;50.076;8.198;2023-02-01T16:05:36;9.73;;;3.00;;
75156;SDS011;63736;50.076;8.198;2023-02-01T16:08:19;10.55;;;2.65;;
75156;SDS011;63736;50.076;8.198;2023-02-01T16:10:47;11.55;;;3.83;;
75156;SDS011;63736;50.076;8.198;2023-02-01T16:13:16;16.27;;;4.55;;
75156;SDS011;63736;50.076;8.198;2023-02-01T16:15:42;22.02;;;5.82;;
75156;SDS011;63736;50.076;8.198;2023-02-01T16:18:08;9.97;;;2.80;;
75156;SDS011;63736;50.076;8.198;2023-02-01T16:20:35;12.05;;;2.80;;
75156;SDS011;63736;50.076;8.198;2023-02-01T16:23:02;12.30;;;3.85;;
75156;SDS011;63736;50.076;8.198;2023-02-01T16:25:27;13.40;;;4.07;;
75156;SDS011;63736;50.076;8.198;2023-02-01T16:27:53;23.80;;;7.93;;
75156;SDS011;63736;50.076;8.198;2023-02-01T16:30:18;12.77;;;4.18;;
75156;SDS011;63736;50.076;8.198;2023-02-01T16:32:48;9.23;;;2.50;;
75156;SDS011;63736;50.076;8.198;2023-02-01T16:35:23;10.45;;;3.03;;
75156;SDS011;63736;50.076;8.198;2023-02-01T16:37:51;11.02;;;3.05;;
75156;SDS011;63736;50.076;8.198;2023-02-01T16:40:17;13.10;;;3.10;;